createdAt,value
2018-05-16T00:01:13.655Z,83.73
2018-05-16T00:03:41.184Z,82.82
2018-05-16T00:06:08.709Z,82.56
2018-05-16T00:08:36.236Z,83.48
2018-05-16T00:11:03.761Z,83.56
2018-05-16T00:13:31.306Z,84.17
2018-05-16T00:15:58.836Z,83.74
2018-05-16T00:18:26.368Z,83.93
2018-05-16T00:20:53.900Z,83.64
2018-05-16T00:23:21.424Z,84.02
2018-05-16T00:25:48.949Z,84.82
2018-05-16T00:28:16.480Z,85.05
2018-05-16T00:30:44.009Z,84.39
2018-05-16T00:33:11.532Z,83.24
2018-05-16T00:35:39.057Z,83.18
2018-05-16T00:38:06.585Z,82.45
2018-05-16T00:40:34.132Z,82.68
2018-05-16T00:43:01.661Z,82.09
2018-05-16T00:45:29.374Z,83.26
2018-05-16T00:47:56.896Z,85.09
2018-05-16T00:50:24.440Z,85.36
2018-05-16T00:52:51.975Z,83.69
2018-05-16T00:55:19.500Z,85.19
2018-05-16T00:57:47.016Z,84.20
2018-05-16T01:00:14.549Z,84.67
2018-05-16T01:02:42.076Z,85.06
2018-05-16T01:05:09.608Z,83.08
2018-05-16T01:07:37.132Z,83.81
2018-05-16T01:10:04.664Z,83.85
2018-05-16T01:12:32.192Z,83.61
2018-05-16T01:14:59.731Z,82.37
2018-05-16T01:17:27.268Z,83.04
2018-05-16T01:19:54.853Z,83.88
2018-05-16T01:22:22.361Z,82.42
2018-05-16T01:24:49.880Z,83.29
2018-05-16T01:27:17.404Z,83.90
2018-05-16T01:29:44.936Z,83.08
2018-05-16T01:32:12.455Z,83.86
2018-05-16T01:34:39.991Z,84.10
2018-05-16T01:37:07.508Z,83.97
2018-05-16T01:39:35.040Z,84.52
2018-05-16T01:42:02.592Z,84.05
2018-05-16T01:44:30.107Z,85.48
2018-05-16T01:46:57.631Z,83.45
2018-05-16T01:49:25.163Z,84.64
2018-05-16T01:51:52.693Z,84.11
2018-05-16T01:54:20.223Z,84.89
2018-05-16T01:56:47.747Z,85.72
2018-05-16T01:59:15.276Z,85.97
2018-05-16T02:01:42.815Z,86.48
2018-05-16T02:04:10.355Z,86.76
2018-05-16T02:06:37.892Z,86.20
2018-05-16T02:09:06.330Z,86.11
2018-05-16T02:11:33.883Z,85.17
2018-05-16T02:14:01.420Z,85.25
2018-05-16T02:16:28.950Z,86.00
2018-05-16T02:18:56.476Z,85.42
2018-05-16T02:21:24.002Z,86.56
2018-05-16T02:23:51.537Z,86.26
2018-05-16T02:26:19.082Z,86.95
2018-05-16T02:28:46.609Z,87.09
2018-05-16T02:31:14.135Z,86.47
2018-05-16T02:33:41.660Z,86.64
2018-05-16T02:36:09.183Z,86.40
2018-05-16T02:38:36.731Z,85.97
2018-05-16T02:41:04.310Z,86.55
2018-05-16T02:43:31.831Z,86.34
2018-05-16T02:45:59.355Z,86.21
2018-05-16T02:48:26.901Z,85.51
2018-05-16T02:50:54.473Z,86.52
2018-05-16T02:53:22.010Z,86.65
2018-05-16T02:55:49.548Z,86.78
2018-05-16T02:58:17.094Z,86.61
2018-05-16T03:00:44.612Z,86.66
2018-05-16T03:03:12.140Z,86.47
2018-05-16T03:05:39.676Z,86.77
2018-05-16T03:08:07.205Z,86.58
2018-05-16T03:10:34.745Z,86.71
2018-05-16T03:13:02.276Z,86.94
2018-05-16T03:15:29.816Z,86.79
2018-05-16T03:17:57.336Z,86.25
2018-05-16T03:20:24.865Z,86.25
2018-05-16T03:22:52.409Z,86.33
2018-05-16T03:25:19.945Z,87.07
2018-05-16T03:27:47.476Z,87.08
2018-05-16T03:30:15.008Z,86.38
2018-05-16T03:32:42.554Z,87.91
2018-05-16T03:35:10.090Z,86.91
2018-05-16T03:37:37.615Z,87.65
2018-05-16T03:40:05.160Z,87.26
2018-05-16T03:42:32.694Z,87.56
2018-05-16T03:45:00.221Z,87.49
2018-05-16T03:47:27.747Z,87.91
2018-05-16T03:49:55.277Z,87.38
2018-05-16T03:52:22.805Z,86.56
2018-05-16T03:54:50.332Z,86.54
2018-05-16T03:57:29.543Z,87.21
2018-05-16T04:00:08.889Z,87.30
2018-05-16T04:05:40.080Z,86.07
2018-05-16T04:08:07.614Z,86.52
2018-05-16T04:10:35.144Z,87.11
2018-05-16T04:13:02.673Z,86.72
2018-05-16T04:15:30.207Z,86.63
2018-05-16T04:17:57.756Z,85.96
2018-05-16T04:20:25.287Z,87.13
2018-05-16T04:22:52.809Z,86.60
2018-05-16T04:25:20.336Z,86.66
2018-05-16T04:27:47.902Z,85.78
2018-05-16T04:30:15.426Z,86.36
2018-05-16T04:32:43.025Z,86.32
2018-05-16T04:35:10.505Z,85.97
2018-05-16T04:37:38.036Z,85.73
2018-05-16T04:40:05.558Z,85.45
2018-05-16T04:42:33.084Z,85.69
2018-05-16T04:45:00.608Z,85.74
2018-05-16T04:47:28.139Z,85.46
2018-05-16T04:49:55.677Z,85.46
2018-05-16T04:52:23.239Z,85.43
2018-05-16T04:54:50.763Z,85.14
2018-05-16T04:57:18.308Z,85.05
2018-05-16T04:59:45.844Z,85.09
2018-05-16T05:02:13.389Z,84.96
2018-05-16T05:04:40.928Z,85.03
2018-05-16T05:07:08.452Z,84.97
2018-05-16T05:09:36.006Z,84.66
2018-05-16T05:12:03.529Z,84.38
2018-05-16T05:14:31.056Z,84.48
2018-05-16T05:16:58.588Z,84.18
2018-05-16T05:19:26.113Z,83.94
2018-05-16T05:21:53.640Z,83.67
2018-05-16T05:24:21.164Z,83.81
2018-05-16T05:26:48.714Z,83.60
2018-05-16T05:29:16.244Z,83.51
2018-05-16T05:31:43.774Z,83.07
2018-05-16T05:34:11.297Z,82.77
2018-05-16T05:36:38.825Z,82.64
2018-05-16T05:39:06.352Z,82.23
2018-05-16T05:41:33.881Z,81.94
2018-05-16T05:44:01.400Z,81.87
2018-05-16T05:46:28.934Z,81.66
2018-05-16T05:48:56.458Z,81.65
2018-05-16T05:51:23.992Z,81.40
2018-05-16T05:53:51.524Z,81.15
2018-05-16T05:56:19.064Z,81.17
2018-05-16T05:58:46.595Z,80.56
2018-05-16T06:01:14.115Z,80.10
2018-05-16T06:03:41.656Z,79.98
2018-05-16T06:06:09.263Z,79.72
2018-05-16T06:08:36.728Z,78.86
2018-05-16T06:11:04.254Z,78.52
2018-05-16T06:13:31.780Z,78.41
2018-05-16T06:15:59.299Z,76.86
2018-05-16T06:18:26.826Z,76.06
2018-05-16T06:20:54.372Z,76.44
2018-05-16T06:23:21.901Z,75.20
2018-05-16T06:25:49.435Z,75.41
2018-05-16T06:28:16.968Z,72.84
2018-05-16T06:30:44.492Z,72.06
2018-05-16T06:33:12.021Z,72.84
2018-05-16T06:35:39.547Z,72.30
2018-05-16T06:38:07.072Z,71.18
2018-05-16T06:40:34.610Z,70.65
2018-05-16T06:43:02.145Z,72.02
2018-05-16T06:45:31.815Z,71.23
2018-05-16T06:47:59.341Z,71.58
2018-05-16T06:50:26.891Z,70.81
2018-05-16T06:52:54.426Z,71.25
2018-05-16T06:55:22.015Z,69.87
2018-05-16T06:57:49.573Z,70.68
2018-05-16T07:00:17.108Z,70.30
2018-05-16T07:02:44.762Z,70.16
2018-05-16T07:05:12.417Z,68.42
2018-05-16T07:07:39.943Z,69.80
2018-05-16T07:10:07.537Z,69.38
2018-05-16T07:12:35.069Z,69.43
2018-05-16T07:15:02.613Z,67.91
2018-05-16T07:17:30.212Z,67.71
2018-05-16T07:19:57.744Z,66.83
2018-05-16T07:22:25.338Z,64.49
2018-05-16T07:24:52.870Z,64.92
2018-05-16T07:27:20.397Z,67.45
2018-05-16T07:29:47.936Z,63.20
2018-05-16T07:32:15.580Z,63.21
2018-05-16T07:34:43.109Z,63.62
2018-05-16T07:37:10.700Z,63.70
2018-05-16T07:39:38.225Z,61.14
2018-05-16T07:42:05.883Z,59.48
2018-05-16T07:44:33.479Z,61.65
2018-05-16T07:47:01.097Z,60.67
2018-05-16T07:49:28.618Z,56.45
2018-05-16T07:51:56.265Z,57.51
2018-05-16T07:54:23.793Z,56.73
2018-05-16T07:56:51.324Z,57.54
2018-05-16T07:59:18.876Z,54.31
2018-05-16T08:01:46.403Z,51.02
2018-05-16T08:04:13.940Z,52.91
2018-05-16T08:06:41.487Z,53.11
2018-05-16T08:09:09.018Z,53.87
2018-05-16T08:11:36.573Z,51.11
2018-05-16T08:14:04.112Z,51.54
2018-05-16T08:16:31.632Z,50.15
2018-05-16T08:18:59.216Z,50.73
2018-05-16T08:21:26.881Z,50.35
2018-05-16T08:23:54.414Z,51.37
2018-05-16T08:26:21.941Z,50.21
2018-05-16T08:28:49.549Z,50.69
2018-05-16T08:31:17.170Z,51.05
2018-05-16T08:33:44.680Z,51.73
2018-05-16T08:36:12.227Z,48.67
2018-05-16T08:38:39.801Z,50.80
2018-05-16T08:41:07.395Z,51.69
2018-05-16T08:43:35.027Z,51.10
2018-05-16T08:46:02.599Z,48.89
2018-05-16T08:48:30.129Z,49.85
2018-05-16T08:50:57.660Z,50.83
2018-05-16T08:53:25.206Z,50.91
2018-05-16T08:55:52.824Z,48.31
2018-05-16T08:58:20.349Z,43.42
2018-05-16T09:00:47.944Z,45.98
2018-05-16T09:03:15.475Z,43.19
2018-05-16T09:05:42.992Z,43.01
2018-05-16T09:08:10.675Z,42.38
2018-05-16T09:10:38.215Z,43.48
2018-05-16T09:13:05.749Z,41.99
2018-05-16T09:15:33.268Z,42.16
2018-05-16T09:18:00.796Z,42.07
2018-05-16T09:20:28.424Z,40.73
2018-05-16T09:22:55.984Z,39.44
2018-05-16T09:25:23.508Z,41.36
2018-05-16T09:27:51.062Z,41.58
2018-05-16T09:30:18.592Z,38.80
2018-05-16T09:32:46.108Z,36.26
2018-05-16T09:35:13.633Z,38.90
2018-05-16T09:37:41.160Z,35.95
2018-05-16T09:40:08.689Z,34.40
2018-05-16T09:42:36.223Z,37.61
2018-05-16T09:45:03.758Z,39.30
2018-05-16T09:47:31.276Z,38.06
2018-05-16T09:49:58.795Z,38.78
2018-05-16T09:52:26.316Z,37.36
2018-05-16T09:54:53.849Z,38.11
2018-05-16T09:57:21.372Z,37.36
2018-05-16T09:59:49.531Z,38.82
2018-05-16T10:02:17.713Z,38.88
2018-05-16T10:04:45.239Z,38.99
2018-05-16T10:07:12.780Z,39.66
2018-05-16T10:09:40.360Z,40.37
2018-05-16T10:12:07.901Z,40.74
2018-05-16T10:14:35.432Z,41.03
2018-05-16T10:17:02.989Z,40.83
2018-05-16T10:19:30.513Z,40.60
2018-05-16T10:21:58.044Z,39.90
2018-05-16T10:24:25.592Z,41.60
2018-05-16T10:26:53.158Z,40.45
2018-05-16T10:29:20.684Z,41.51
2018-05-16T10:31:48.211Z,41.96
2018-05-16T10:34:15.810Z,41.61
2018-05-16T10:36:43.369Z,41.16
2018-05-16T10:39:10.902Z,40.78
2018-05-16T10:41:38.456Z,41.09
2018-05-16T10:44:05.984Z,41.34
2018-05-16T10:46:33.507Z,39.43
2018-05-16T10:49:01.032Z,41.12
2018-05-16T10:51:28.572Z,41.60
2018-05-16T10:53:56.112Z,42.02
2018-05-16T10:56:23.641Z,41.79
2018-05-16T10:58:51.168Z,41.47
2018-05-16T11:01:18.693Z,41.27
2018-05-16T11:03:46.219Z,41.21
2018-05-16T11:06:13.749Z,41.99
2018-05-16T11:08:41.272Z,39.87
2018-05-16T11:11:08.798Z,40.29
2018-05-16T11:13:36.326Z,38.87
2018-05-16T11:16:03.852Z,39.62
2018-05-16T11:18:31.409Z,39.43
2018-05-16T11:20:58.936Z,40.58
2018-05-16T11:23:26.459Z,41.51
2018-05-16T11:25:53.988Z,42.01
2018-05-16T11:28:21.513Z,41.83
2018-05-16T11:30:49.103Z,41.78
2018-05-16T11:33:16.652Z,42.03
2018-05-16T11:35:44.178Z,42.44
2018-05-16T11:38:11.711Z,42.18
2018-05-16T11:40:39.247Z,41.43
2018-05-16T11:43:06.789Z,41.37
2018-05-16T11:45:34.329Z,41.85
2018-05-16T11:48:01.887Z,42.29
2018-05-16T11:50:29.416Z,42.67
2018-05-16T11:52:56.952Z,42.68
2018-05-16T11:55:24.498Z,42.56
2018-05-16T11:57:52.031Z,43.15
2018-05-16T12:00:19.548Z,42.84
2018-05-16T12:02:47.266Z,42.64
2018-05-16T12:05:14.741Z,41.63
2018-05-16T12:07:42.331Z,42.70
2018-05-16T12:10:09.863Z,41.72
2018-05-16T12:12:37.419Z,41.91
2018-05-16T12:15:04.956Z,41.61
2018-05-16T12:17:32.508Z,41.77
2018-05-16T12:20:00.086Z,41.19
2018-05-16T12:22:27.625Z,40.72
2018-05-16T12:24:55.148Z,40.51
2018-05-16T12:27:22.788Z,41.05
2018-05-16T12:29:50.340Z,41.39
2018-05-16T12:32:17.866Z,42.02
2018-05-16T12:34:45.443Z,42.68
2018-05-16T12:37:12.987Z,42.94
2018-05-16T12:39:40.523Z,42.10
2018-05-16T12:42:08.107Z,41.84
2018-05-16T12:44:35.652Z,41.76
2018-05-16T12:47:03.270Z,42.75
2018-05-16T12:49:30.798Z,43.17
2018-05-16T12:51:58.337Z,43.44
2018-05-16T12:54:25.870Z,42.57
2018-05-16T12:56:53.396Z,41.84
2018-05-16T12:59:20.924Z,40.48
2018-05-16T13:01:48.444Z,41.00
2018-05-16T13:04:15.975Z,41.19
2018-05-16T13:06:43.499Z,39.91
2018-05-16T13:09:11.020Z,39.03
2018-05-16T13:11:38.549Z,38.97
2018-05-16T13:14:06.077Z,39.55
2018-05-16T13:16:33.599Z,39.03
2018-05-16T13:19:01.139Z,37.35
2018-05-16T13:21:28.729Z,35.52
2018-05-16T13:23:56.209Z,36.01
2018-05-16T13:26:23.760Z,36.94
2018-05-16T13:28:51.677Z,36.82
2018-05-16T13:31:19.233Z,37.42
2018-05-16T13:33:46.797Z,37.88
2018-05-16T13:36:14.369Z,38.37
2018-05-16T13:38:42.020Z,38.38
2018-05-16T13:41:09.536Z,38.33
2018-05-16T13:43:37.065Z,38.74
2018-05-16T13:46:04.700Z,40.03
2018-05-16T13:48:32.216Z,41.79
2018-05-16T13:50:59.820Z,42.55
2018-05-16T13:53:27.380Z,43.17
2018-05-16T13:55:54.909Z,43.46
2018-05-16T13:58:22.429Z,44.47
2018-05-16T14:00:49.957Z,44.93
2018-05-16T14:03:17.513Z,44.84
2018-05-16T14:05:45.070Z,45.07
2018-05-16T14:08:12.613Z,45.17
2018-05-16T14:10:40.128Z,44.95
2018-05-16T14:13:07.759Z,44.92
2018-05-16T14:15:35.312Z,45.20
2018-05-16T14:18:02.827Z,44.83
2018-05-16T14:20:30.357Z,44.85
2018-05-16T14:22:57.896Z,43.81
2018-05-16T14:25:25.419Z,44.23
2018-05-16T14:27:52.948Z,44.59
2018-05-16T14:30:20.478Z,44.18
2018-05-16T14:32:48.034Z,45.09
2018-05-16T14:35:15.556Z,46.67
2018-05-16T14:37:43.089Z,47.11
2018-05-16T14:40:10.652Z,47.48
2018-05-16T14:42:38.250Z,47.36
2018-05-16T14:45:05.745Z,47.80
2018-05-16T14:47:33.276Z,48.21
2018-05-16T14:50:00.808Z,47.90
2018-05-16T14:52:28.343Z,48.78
2018-05-16T14:54:55.972Z,49.39
2018-05-16T14:57:23.513Z,50.01
2018-05-16T14:59:51.024Z,50.63
2018-05-16T15:02:18.568Z,51.38
2018-05-16T15:04:46.093Z,51.59
2018-05-16T15:07:13.629Z,51.19
2018-05-16T15:09:41.156Z,50.34
2018-05-16T15:12:08.686Z,49.66
2018-05-16T15:14:36.215Z,49.25
2018-05-16T15:17:03.777Z,48.43
2018-05-16T15:19:31.306Z,47.03
2018-05-16T15:21:58.880Z,46.71
2018-05-16T15:24:26.412Z,46.87
2018-05-16T15:26:53.968Z,46.40
2018-05-16T15:29:21.504Z,46.31
2018-05-16T15:31:49.035Z,47.46
2018-05-16T15:34:16.560Z,48.12
2018-05-16T15:36:44.082Z,48.24
2018-05-16T15:39:11.611Z,47.97
2018-05-16T15:41:39.143Z,47.74
2018-05-16T15:44:06.761Z,47.38
2018-05-16T15:46:34.279Z,47.35
2018-05-16T15:49:01.819Z,47.67
2018-05-16T15:51:29.339Z,47.40
2018-05-16T15:53:56.862Z,48.64
2018-05-16T15:56:24.390Z,49.61
2018-05-16T15:58:51.917Z,50.09
2018-05-16T16:01:19.444Z,50.76
2018-05-16T16:03:46.968Z,51.33
2018-05-16T16:06:14.503Z,49.97
2018-05-16T16:08:42.019Z,50.16
2018-05-16T16:11:09.557Z,51.00
2018-05-16T16:13:37.084Z,52.29
2018-05-16T16:16:04.649Z,51.86
2018-05-16T16:18:32.173Z,53.11
2018-05-16T16:20:59.710Z,53.03
2018-05-16T16:23:27.256Z,51.90
2018-05-16T16:25:54.796Z,53.45
2018-05-16T16:28:22.532Z,52.97
2018-05-16T16:30:50.106Z,54.19
2018-05-16T16:33:17.655Z,53.85
2018-05-16T16:35:45.214Z,54.56
2018-05-16T16:38:12.771Z,54.80
2018-05-16T16:40:40.323Z,54.68
2018-05-16T16:43:07.863Z,54.63
2018-05-16T16:45:35.401Z,53.81
2018-05-16T16:48:02.961Z,54.18
2018-05-16T16:50:30.521Z,54.98
2018-05-16T16:52:58.093Z,53.91
2018-05-16T16:55:25.645Z,53.40
2018-05-16T16:57:53.193Z,54.68
2018-05-16T17:00:20.761Z,55.27
2018-05-16T17:02:48.304Z,55.42
2018-05-16T17:05:15.837Z,55.04
2018-05-16T17:07:43.372Z,55.56
2018-05-16T17:10:11.073Z,55.38
2018-05-16T17:12:38.623Z,55.48
2018-05-16T17:15:06.183Z,54.85
2018-05-16T17:17:33.738Z,55.58
2018-05-16T17:20:01.291Z,55.85
2018-05-16T17:22:28.860Z,54.79
2018-05-16T17:24:56.500Z,55.32
2018-05-16T17:27:24.001Z,54.84
2018-05-16T17:29:51.554Z,55.28
2018-05-16T17:32:19.075Z,54.98
2018-05-16T17:34:46.588Z,54.38
2018-05-16T17:37:14.117Z,54.49
2018-05-16T17:39:41.676Z,53.77
2018-05-16T17:42:09.238Z,53.84
2018-05-16T17:44:36.774Z,54.94
2018-05-16T17:47:04.329Z,54.61
2018-05-16T17:49:31.850Z,54.59
2018-05-16T17:51:59.372Z,54.64
2018-05-16T17:54:26.913Z,55.17
2018-05-16T17:56:54.462Z,56.07
2018-05-16T17:59:21.977Z,55.93
2018-05-16T18:01:49.510Z,56.25
2018-05-16T18:04:17.069Z,55.97
2018-05-16T18:06:44.594Z,56.36
2018-05-16T18:09:12.112Z,56.60
2018-05-16T18:11:39.632Z,56.76
2018-05-16T18:14:19.089Z,55.93
2018-05-16T18:16:58.718Z,57.11
2018-05-16T18:19:26.285Z,56.35
2018-05-16T18:21:53.845Z,56.97
2018-05-16T18:24:21.365Z,57.12
2018-05-16T18:26:48.968Z,55.65
2018-05-16T18:29:16.502Z,57.22
2018-05-16T18:31:44.071Z,57.04
2018-05-16T18:34:11.584Z,56.75
2018-05-16T18:36:39.139Z,56.36
2018-05-16T18:39:06.769Z,57.41
2018-05-16T18:41:34.291Z,56.98
2018-05-16T18:44:01.829Z,58.00
2018-05-16T18:46:29.377Z,57.27
2018-05-16T18:48:57.007Z,56.61
2018-05-16T18:51:24.574Z,57.38
2018-05-16T18:53:52.129Z,58.48
2018-05-16T18:56:19.687Z,58.11
2018-05-16T18:58:47.217Z,59.26
2018-05-16T19:01:14.745Z,58.75
2018-05-16T19:03:42.291Z,59.31
2018-05-16T19:06:09.912Z,60.14
2018-05-16T19:08:37.528Z,58.77
2018-05-16T19:11:05.079Z,59.63
2018-05-16T19:13:32.707Z,60.61
2018-05-16T19:16:00.271Z,59.68
2018-05-16T19:18:27.799Z,60.45
2018-05-16T19:20:55.325Z,60.41
2018-05-16T19:23:22.861Z,61.48
2018-05-16T19:25:50.407Z,61.55
2018-05-16T19:28:17.936Z,60.42
2018-05-16T19:30:45.458Z,60.97
2018-05-16T19:33:12.983Z,61.05
2018-05-16T19:35:40.513Z,61.11
2018-05-16T19:38:08.104Z,61.34
2018-05-16T19:40:35.631Z,61.20
2018-05-16T19:43:03.269Z,60.81
2018-05-16T19:45:30.807Z,60.50
2018-05-16T21:09:55.360Z,60.19
2018-05-16T21:12:22.994Z,62.50
2018-05-16T21:14:50.534Z,62.39
2018-05-16T21:17:18.060Z,61.12
2018-05-16T21:19:45.675Z,62.69
2018-05-16T21:22:13.208Z,63.92
2018-05-16T21:24:40.735Z,62.41
2018-05-16T21:27:08.262Z,64.93
2018-05-16T21:29:35.818Z,64.16
2018-05-16T21:32:03.345Z,64.19
2018-05-16T21:34:30.937Z,63.50
2018-05-16T21:36:58.506Z,64.52
2018-05-16T21:39:26.027Z,64.39
2018-05-16T21:41:53.564Z,66.41
2018-05-16T21:44:21.106Z,67.76
2018-05-16T21:46:48.672Z,67.10
2018-05-16T21:49:16.297Z,68.32
2018-05-16T21:51:43.858Z,67.96
2018-05-16T21:54:11.436Z,66.17
2018-05-16T21:56:39.025Z,67.98
2018-05-16T21:59:06.524Z,66.85
2018-05-16T22:01:34.053Z,67.09
2018-05-16T22:04:01.581Z,66.38
2018-05-16T22:06:29.115Z,65.53
2018-05-16T22:08:56.649Z,66.22
2018-05-16T22:11:24.181Z,65.47
2018-05-16T22:13:51.732Z,67.46
2018-05-16T22:16:19.253Z,67.17
2018-05-16T22:18:46.780Z,66.51
2018-05-16T22:21:14.381Z,67.06
2018-05-16T22:23:41.880Z,66.43
2018-05-16T22:26:09.411Z,65.69
2018-05-16T22:28:36.947Z,66.62
2018-05-16T22:31:10.073Z,67.05
2018-05-16T22:33:43.185Z,66.96
2018-05-16T22:36:16.359Z,67.30
2018-05-16T22:38:49.324Z,67.16
2018-05-16T22:41:22.533Z,65.92
2018-05-16T22:43:53.001Z,66.19
2018-05-16T22:46:20.527Z,65.94
2018-05-16T22:48:48.054Z,66.29
2018-05-16T22:51:15.580Z,65.65
2018-05-16T22:53:43.105Z,65.29
2018-05-16T22:56:10.645Z,65.43
2018-05-16T22:58:38.169Z,65.33
2018-05-16T23:01:05.711Z,65.30
2018-05-16T23:03:33.242Z,65.53
2018-05-16T23:06:00.781Z,65.95
2018-05-16T23:08:28.324Z,64.89
2018-05-16T23:10:55.850Z,65.00
2018-05-16T23:13:23.379Z,65.42
2018-05-16T23:15:50.921Z,65.40
2018-05-16T23:18:18.462Z,65.27
2018-05-16T23:20:46.003Z,66.05
2018-05-16T23:23:13.545Z,65.36
2018-05-16T23:25:41.075Z,67.47
2018-05-16T23:28:08.747Z,67.34
2018-05-16T23:30:36.293Z,67.16
2018-05-16T23:33:03.822Z,68.42
2018-05-16T23:35:31.350Z,67.64
2018-05-16T23:37:58.873Z,67.63
2018-05-16T23:40:26.409Z,67.49
2018-05-16T23:42:53.997Z,68.13
2018-05-16T23:45:21.520Z,67.92
2018-05-16T23:47:49.045Z,67.55
2018-05-16T23:50:16.567Z,68.84
2018-05-16T23:52:44.093Z,69.45
2018-05-16T23:55:11.623Z,67.38
2018-05-16T23:57:39.146Z,67.90
